sensor_id;sensor_type;location;lat;lon;timestamp;pressure;altitude;pressure_sealevel;temperature;humidity
22000;BME280;11164;48.818;2.322;2023-03-26T00:00:40;99815.16;;;13.68;35.73
22000;BME280;11164;48.818;2.322;2023-03-26T00:03:09;99810.56;;;13.57;35.85
22000;BME280;11164;48.818;2.322;2023-03-26T00:05:36;99800.78;;;13.67;35.84
22000;BME280;11164;48.818;2.322;2023-03-26T00:08:01;99799.00;;;13.73;35.63
22000;BME280;11164;48.818;2.322;2023-03-26T00:10:26;99786.28;;;13.74;35.53
22000;BME280;11164;48.818;2.322;2023-03-26T00:12:52;99781.25;;;13.54;35.79
22000;BME280;11164;48.818;2.322;2023-03-26T00:15:17;99781.13;;;13.60;35.64
22000;BME280;11164;48.818;2.322;2023-03-26T00:17:43;99780.75;;;13.68;35.43
22000;BME280;11164;48.818;2.322;2023-03-26T00:20:11;99762.88;;;13.56;35.81
22000;BME280;11164;48.818;2.322;2023-03-26T00:22:37;99759.31;;;13.67;35.35
22000;BME280;11164;48.818;2.322;2023-03-26T00:25:03;99754.41;;;13.52;35.78
22000;BME280;11164;48.818;2.322;2023-03-26T00:27:29;99750.28;;;13.49;35.86
22000;BME280;11164;48.818;2.322;2023-03-26T00:29:55;99738.28;;;13.45;36.02
22000;BME280;11164;48.818;2.322;2023-03-26T00:32:21;99745.25;;;13.41;35.98
22000;BME280;11164;48.818;2.322;2023-03-26T00:34:47;99737.94;;;13.42;35.83
22000;BME280;11164;48.818;2.322;2023-03-26T00:37:12;99731.31;;;13.49;35.89
22000;BME280;11164;48.818;2.322;2023-03-26T00:39:39;99735.50;;;13.28;36.25
22000;BME280;11164;48.818;2.322;2023-03-26T00:42:06;99729.16;;;13.23;36.68
22000;BME280;11164;48.818;2.322;2023-03-26T00:44:33;99722.94;;;13.10;36.80
22000;BME280;11164;48.818;2.322;2023-03-26T00:46:58;99697.53;;;12.88;36.95
22000;BME280;11164;48.818;2.322;2023-03-26T00:49:24;99687.25;;;12.78;37.29
22000;BME280;11164;48.818;2.322;2023-03-26T00:51:51;99695.28;;;12.85;37.49
22000;BME280;11164;48.818;2.322;2023-03-26T00:54:17;99686.72;;;12.88;37.54
22000;BME280;11164;48.818;2.322;2023-03-26T00:56:43;99682.81;;;12.60;38.23
22000;BME280;11164;48.818;2.322;2023-03-26T00:59:08;99664.56;;;12.67;37.88
22000;BME280;11164;48.818;2.322;2023-03-26T01:01:35;99667.19;;;12.86;37.66
22000;BME280;11164;48.818;2.322;2023-03-26T01:04:28;99647.19;;;12.87;40.49
22000;BME280;11164;48.818;2.322;2023-03-26T01:06:55;99650.34;;;12.84;37.87
22000;BME280;11164;48.818;2.322;2023-03-26T01:09:28;99640.00;;;12.81;38.05
22000;BME280;11164;48.818;2.322;2023-03-26T01:11:58;99641.84;;;12.80;38.18
22000;BME280;11164;48.818;2.322;2023-03-26T01:14:24;99627.88;;;12.83;37.78
22000;BME280;11164;48.818;2.322;2023-03-26T01:16:53;99624.22;;;12.78;38.12
22000;BME280;11164;48.818;2.322;2023-03-26T01:19:31;99613.88;;;12.63;41.48
22000;BME280;11164;48.818;2.322;2023-03-26T01:22:06;99609.56;;;12.50;39.01
22000;BME280;11164;48.818;2.322;2023-03-26T01:24:35;99607.09;;;12.48;38.82
22000;BME280;11164;48.818;2.322;2023-03-26T01:27:46;99592.50;;;12.26;41.12
22000;BME280;11164;48.818;2.322;2023-03-26T01:30:16;99584.53;;;12.31;43.71
22000;BME280;11164;48.818;2.322;2023-03-26T01:38:23;99567.25;;;12.20;42.02
22000;BME280;11164;48.818;2.322;2023-03-26T01:46:46;99518.25;;;12.05;40.24
22000;BME280;11164;48.818;2.322;2023-03-26T01:49:12;99499.69;;;12.20;40.16
22000;BME280;11164;48.818;2.322;2023-03-26T01:51:40;99496.88;;;12.15;40.16
22000;BME280;11164;48.818;2.322;2023-03-26T01:54:09;99481.94;;;12.12;40.33
22000;BME280;11164;48.818;2.322;2023-03-26T01:56:48;99469.63;;;12.16;42.08
22000;BME280;11164;48.818;2.322;2023-03-26T02:04:56;99461.16;;;12.13;40.60
22000;BME280;11164;48.818;2.322;2023-03-26T02:07:48;99439.84;;;12.28;43.41
22000;BME280;11164;48.818;2.322;2023-03-26T02:12:45;99430.59;;;12.24;40.34
22000;BME280;11164;48.818;2.322;2023-03-26T02:15:11;99413.28;;;12.37;40.07
22000;BME280;11164;48.818;2.322;2023-03-26T02:17:37;99417.84;;;12.36;40.24
22000;BME280;11164;48.818;2.322;2023-03-26T02:20:06;99408.03;;;12.30;40.30
22000;BME280;11164;48.818;2.322;2023-03-26T02:22:34;99404.72;;;12.28;40.35
22000;BME280;11164;48.818;2.322;2023-03-26T02:25:08;99388.31;;;12.47;39.99
22000;BME280;11164;48.818;2.322;2023-03-26T02:27:35;99331.22;;;12.14;40.81
22000;BME280;11164;48.818;2.322;2023-03-26T02:30:02;99356.16;;;12.33;40.55
22000;BME280;11164;48.818;2.322;2023-03-26T02:32:28;99345.25;;;12.28;40.85
22000;BME280;11164;48.818;2.322;2023-03-26T02:34:54;99335.66;;;12.21;41.25
22000;BME280;11164;48.818;2.322;2023-03-26T02:37:19;99332.63;;;12.17;41.39
22000;BME280;11164;48.818;2.322;2023-03-26T02:39:44;99328.78;;;12.13;41.53
22000;BME280;11164;48.818;2.322;2023-03-26T02:42:10;99327.88;;;12.24;41.17
22000;BME280;11164;48.818;2.322;2023-03-26T02:44:35;99304.09;;;12.09;41.73
22000;BME280;11164;48.818;2.322;2023-03-26T02:47:03;99304.38;;;11.96;41.64
22000;BME280;11164;48.818;2.322;2023-03-26T02:49:28;99294.38;;;11.96;42.25
22000;BME280;11164;48.818;2.322;2023-03-26T02:51:53;99289.09;;;12.02;42.07
22000;BME280;11164;48.818;2.322;2023-03-26T02:54:21;99284.22;;;12.15;41.56
22000;BME280;11164;48.818;2.322;2023-03-26T02:56:46;99284.78;;;12.17;41.89
22000;BME280;11164;48.818;2.322;2023-03-26T02:59:11;99277.34;;;12.25;41.62
22000;BME280;11164;48.818;2.322;2023-03-26T03:01:37;99282.53;;;12.26;42.05
22000;BME280;11164;48.818;2.322;2023-03-26T03:04:10;99266.84;;;12.11;42.08
22000;BME280;11164;48.818;2.322;2023-03-26T03:06:36;99233.03;;;12.09;42.36
22000;BME280;11164;48.818;2.322;2023-03-26T03:09:06;99243.94;;;12.14;42.66
22000;BME280;11164;48.818;2.322;2023-03-26T03:11:36;99243.69;;;12.15;42.78
22000;BME280;11164;48.818;2.322;2023-03-26T03:14:02;99242.22;;;12.25;42.54
22000;BME280;11164;48.818;2.322;2023-03-26T03:16:28;99236.03;;;12.41;42.28
22000;BME280;11164;48.818;2.322;2023-03-26T03:18:53;99250.50;;;12.35;42.54
22000;BME280;11164;48.818;2.322;2023-03-26T03:21:25;99236.91;;;12.13;43.33
22000;BME280;11164;48.818;2.322;2023-03-26T03:23:51;99238.94;;;12.23;43.01
22000;BME280;11164;48.818;2.322;2023-03-26T03:26:19;99237.00;;;11.89;44.24
22000;BME280;11164;48.818;2.322;2023-03-26T03:28:52;99214.84;;;12.04;43.85
22000;BME280;11164;48.818;2.322;2023-03-26T03:31:18;99235.47;;;12.10;43.59
22000;BME280;11164;48.818;2.322;2023-03-26T03:33:44;99215.94;;;11.91;44.50
22000;BME280;11164;48.818;2.322;2023-03-26T03:36:11;99229.03;;;11.71;45.90
22000;BME280;11164;48.818;2.322;2023-03-26T03:38:38;99227.63;;;11.80;44.83
22000;BME280;11164;48.818;2.322;2023-03-26T03:41:04;99233.66;;;11.99;44.50
22000;BME280;11164;48.818;2.322;2023-03-26T03:43:29;99216.75;;;11.92;44.63
22000;BME280;11164;48.818;2.322;2023-03-26T03:45:54;99226.63;;;11.57;45.48
22000;BME280;11164;48.818;2.322;2023-03-26T03:48:20;99226.94;;;12.02;44.09
22000;BME280;11164;48.818;2.322;2023-03-26T03:50:45;99227.06;;;11.78;44.99
22000;BME280;11164;48.818;2.322;2023-03-26T03:53:10;99232.34;;;11.61;45.28
22000;BME280;11164;48.818;2.322;2023-03-26T03:55:40;99235.63;;;11.63;45.45
22000;BME280;11164;48.818;2.322;2023-03-26T03:58:06;99228.72;;;11.55;45.73
22000;BME280;11164;48.818;2.322;2023-03-26T04:00:33;99230.13;;;11.58;45.72
22000;BME280;11164;48.818;2.322;2023-03-26T04:03:02;99241.06;;;11.39;46.05
22000;BME280;11164;48.818;2.322;2023-03-26T04:05:30;99217.31;;;11.13;46.50
22000;BME280;11164;48.818;2.322;2023-03-26T04:07:56;99225.53;;;10.71;47.47
22000;BME280;11164;48.818;2.322;2023-03-26T04:10:21;99229.25;;;11.05;46.74
22000;BME280;11164;48.818;2.322;2023-03-26T04:12:47;99241.69;;;11.06;46.94
22000;BME280;11164;48.818;2.322;2023-03-26T04:15:12;99231.50;;;10.96;46.77
22000;BME280;11164;48.818;2.322;2023-03-26T04:17:38;99203.34;;;11.16;46.74
22000;BME280;11164;48.818;2.322;2023-03-26T04:20:08;99208.53;;;10.94;46.92
22000;BME280;11164;48.818;2.322;2023-03-26T04:22:34;99216.66;;;11.46;45.44
22000;BME280;11164;48.818;2.322;2023-03-26T04:25:00;99233.09;;;11.33;45.90
22000;BME280;11164;48.818;2.322;2023-03-26T04:27:28;99224.09;;;11.27;46.00
22000;BME280;11164;48.818;2.322;2023-03-26T04:29:56;99233.78;;;11.52;45.10
22000;BME280;11164;48.818;2.322;2023-03-26T04:32:25;99231.13;;;11.40;45.47
22000;BME280;11164;48.818;2.322;2023-03-26T04:34:55;99230.03;;;11.41;45.56
22000;BME280;11164;48.818;2.322;2023-03-26T04:37:27;99234.09;;;11.55;45.56
22000;BME280;11164;48.818;2.322;2023-03-26T04:40:02;99234.06;;;11.27;45.71
22000;BME280;11164;48.818;2.322;2023-03-26T04:42:31;99233.75;;;11.63;44.72
22000;BME280;11164;48.818;2.322;2023-03-26T04:44:57;99219.69;;;11.50;45.17
22000;BME280;11164;48.818;2.322;2023-03-26T04:47:23;99254.25;;;11.00;46.13
22000;BME280;11164;48.818;2.322;2023-03-26T04:49:49;99237.94;;;10.72;46.74
22000;BME280;11164;48.818;2.322;2023-03-26T04:52:14;99248.03;;;10.76;46.56
22000;BME280;11164;48.818;2.322;2023-03-26T04:54:42;99242.63;;;11.12;45.52
22000;BME280;11164;48.818;2.322;2023-03-26T04:57:17;99245.81;;;11.09;45.82
22000;BME280;11164;48.818;2.322;2023-03-26T04:59:44;99216.38;;;10.95;45.69
22000;BME280;11164;48.818;2.322;2023-03-26T05:02:10;99237.50;;;10.98;45.56
22000;BME280;11164;48.818;2.322;2023-03-26T05:04:37;99250.59;;;11.42;44.60
22000;BME280;11164;48.818;2.322;2023-03-26T05:07:05;99251.38;;;11.66;43.73
22000;BME280;11164;48.818;2.322;2023-03-26T05:09:31;99260.31;;;11.43;44.13
22000;BME280;11164;48.818;2.322;2023-03-26T05:11:56;99263.56;;;11.57;43.89
22000;BME280;11164;48.818;2.322;2023-03-26T05:14:23;99261.63;;;11.29;44.66
22000;BME280;11164;48.818;2.322;2023-03-26T05:16:48;99281.78;;;11.50;43.98
22000;BME280;11164;48.818;2.322;2023-03-26T05:19:14;99278.28;;;11.25;44.43
22000;BME280;11164;48.818;2.322;2023-03-26T05:21:39;99293.19;;;11.28;44.56
22000;BME280;11164;48.818;2.322;2023-03-26T05:24:05;99280.56;;;10.63;46.26
22000;BME280;11164;48.818;2.322;2023-03-26T05:26:32;99290.25;;;11.18;44.84
22000;BME280;11164;48.818;2.322;2023-03-26T05:28:58;99307.84;;;11.44;44.25
22000;BME280;11164;48.818;2.322;2023-03-26T05:31:24;99289.91;;;11.02;45.23
22000;BME280;11164;48.818;2.322;2023-03-26T05:33:51;99292.47;;;11.33;44.38
22000;BME280;11164;48.818;2.322;2023-03-26T05:36:19;99301.75;;;11.49;43.81
22000;BME280;11164;48.818;2.322;2023-03-26T05:38:45;99307.25;;;11.18;44.71
22000;BME280;11164;48.818;2.322;2023-03-26T05:41:13;99315.09;;;11.08;45.08
22000;BME280;11164;48.818;2.322;2023-03-26T05:43:40;99303.28;;;11.21;44.72
22000;BME280;11164;48.818;2.322;2023-03-26T05:46:05;99314.06;;;11.33;44.33
22000;BME280;11164;48.818;2.322;2023-03-26T05:48:31;99305.97;;;11.21;44.59
22000;BME280;11164;48.818;2.322;2023-03-26T05:50:57;99301.47;;;10.91;45.22
22000;BME280;11164;48.818;2.322;2023-03-26T05:53:24;99288.38;;;11.30;44.30
22000;BME280;11164;48.818;2.322;2023-03-26T05:55:50;99296.78;;;11.81;43.05
22000;BME280;11164;48.818;2.322;2023-03-26T05:58:29;99293.03;;;11.58;43.41
22000;BME280;11164;48.818;2.322;2023-03-26T06:01:04;99305.03;;;11.62;43.05
22000;BME280;11164;48.818;2.322;2023-03-26T06:03:34;99304.09;;;11.45;43.76
22000;BME280;11164;48.818;2.322;2023-03-26T06:06:00;99290.72;;;11.03;44.57
22000;BME280;11164;48.818;2.322;2023-03-26T06:08:25;99302.66;;;11.54;43.27
22000;BME280;11164;48.818;2.322;2023-03-26T06:10:58;99306.06;;;11.61;43.06
22000;BME280;11164;48.818;2.322;2023-03-26T06:13:23;99311.56;;;11.90;42.57
22000;BME280;11164;48.818;2.322;2023-03-26T06:15:48;99313.81;;;11.46;43.01
22000;BME280;11164;48.818;2.322;2023-03-26T06:18:14;99308.97;;;11.72;43.46
22000;BME280;11164;48.818;2.322;2023-03-26T06:20:40;99314.47;;;12.00;42.52
22000;BME280;11164;48.818;2.322;2023-03-26T06:23:06;99322.44;;;12.36;41.85
22000;BME280;11164;48.818;2.322;2023-03-26T06:25:31;99320.75;;;12.47;41.88
22000;BME280;11164;48.818;2.322;2023-03-26T06:27:56;99333.97;;;12.60;41.61
22000;BME280;11164;48.818;2.322;2023-03-26T06:30:22;99324.66;;;12.39;42.21
22000;BME280;11164;48.818;2.322;2023-03-26T06:32:47;99318.28;;;12.45;41.78
22000;BME280;11164;48.818;2.322;2023-03-26T06:35:12;99322.25;;;12.26;42.19
22000;BME280;11164;48.818;2.322;2023-03-26T06:37:38;99321.88;;;12.34;42.17
22000;BME280;11164;48.818;2.322;2023-03-26T06:40:04;99319.41;;;12.32;42.26
22000;BME280;11164;48.818;2.322;2023-03-26T06:42:29;99323.25;;;12.36;42.14
22000;BME280;11164;48.818;2.322;2023-03-26T06:44:55;99321.25;;;12.15;42.36
22000;BME280;11164;48.818;2.322;2023-03-26T06:47:20;99317.31;;;12.23;42.37
22000;BME280;11164;48.818;2.322;2023-03-26T06:49:45;99313.75;;;12.34;42.34
22000;BME280;11164;48.818;2.322;2023-03-26T06:52:11;99312.81;;;11.99;42.15
22000;BME280;11164;48.818;2.322;2023-03-26T06:54:37;99315.75;;;11.98;42.66
22000;BME280;11164;48.818;2.322;2023-03-26T06:57:02;99325.66;;;11.80;43.07
22000;BME280;11164;48.818;2.322;2023-03-26T06:59:27;99331.25;;;12.03;42.69
22000;BME280;11164;48.818;2.322;2023-03-26T07:01:53;99332.63;;;12.17;42.12
22000;BME280;11164;48.818;2.322;2023-03-26T07:04:18;99339.84;;;11.99;42.73
22000;BME280;11164;48.818;2.322;2023-03-26T07:06:43;99339.56;;;12.13;42.40
22000;BME280;11164;48.818;2.322;2023-03-26T07:09:10;99334.47;;;11.76;42.86
22000;BME280;11164;48.818;2.322;2023-03-26T07:11:35;99334.72;;;12.27;42.00
22000;BME280;11164;48.818;2.322;2023-03-26T07:14:00;99348.44;;;11.85;42.70
22000;BME280;11164;48.818;2.322;2023-03-26T07:16:26;99338.25;;;12.15;42.10
22000;BME280;11164;48.818;2.322;2023-03-26T07:18:51;99350.66;;;12.28;41.87
22000;BME280;11164;48.818;2.322;2023-03-26T07:21:18;99341.84;;;12.04;42.29
22000;BME280;11164;48.818;2.322;2023-03-26T07:23:46;99351.78;;;12.15;42.06
22000;BME280;11164;48.818;2.322;2023-03-26T07:34:54;99351.81;;;12.44;41.67
22000;BME280;11164;48.818;2.322;2023-03-26T07:43:02;99368.31;;;12.60;41.72
22000;BME280;11164;48.818;2.322;2023-03-26T07:45:36;99373.03;;;12.12;42.04
22000;BME280;11164;48.818;2.322;2023-03-26T07:48:17;99369.88;;;12.72;41.12
22000;BME280;11164;48.818;2.322;2023-03-26T07:50:45;99363.84;;;12.53;41.73
22000;BME280;11164;48.818;2.322;2023-03-26T07:53:11;99374.91;;;12.81;41.49
22000;BME280;11164;48.818;2.322;2023-03-26T07:56:11;99378.97;;;12.95;40.64
22000;BME280;11164;48.818;2.322;2023-03-26T07:59:03;99382.63;;;12.60;41.09
22000;BME280;11164;48.818;2.322;2023-03-26T08:06:58;99378.47;;;12.69;41.78
22000;BME280;11164;48.818;2.322;2023-03-26T08:12:13;99388.75;;;12.96;41.06
22000;BME280;11164;48.818;2.322;2023-03-26T08:19:49;99385.22;;;12.67;42.04
22000;BME280;11164;48.818;2.322;2023-03-26T08:22:21;99385.75;;;12.98;41.31
22000;BME280;11164;48.818;2.322;2023-03-26T08:27:40;99398.41;;;12.80;41.22
22000;BME280;11164;48.818;2.322;2023-03-26T08:30:20;99386.22;;;12.78;41.93
22000;BME280;11164;48.818;2.322;2023-03-26T08:32:54;99391.09;;;13.09;41.18
22000;BME280;11164;48.818;2.322;2023-03-26T08:35:21;99384.63;;;13.44;40.62
22000;BME280;11164;48.818;2.322;2023-03-26T08:37:46;99388.44;;;12.81;41.64
22000;BME280;11164;48.818;2.322;2023-03-26T08:40:18;99398.50;;;12.68;42.06
22000;BME280;11164;48.818;2.322;2023-03-26T08:42:58;99405.97;;;12.49;41.76
22000;BME280;11164;48.818;2.322;2023-03-26T08:45:46;99403.56;;;12.82;41.08
22000;BME280;11164;48.818;2.322;2023-03-26T08:54:37;99408.38;;;12.34;42.00
22000;BME280;11164;48.818;2.322;2023-03-26T09:20:51;99424.59;;;13.71;39.64
22000;BME280;11164;48.818;2.322;2023-03-26T09:29:15;99442.16;;;12.89;39.16
22000;BME280;11164;48.818;2.322;2023-03-26T09:34:35;99434.59;;;13.37;39.65
22000;BME280;11164;48.818;2.322;2023-03-26T09:37:16;99444.19;;;13.44;38.52
22000;BME280;11164;48.818;2.322;2023-03-26T09:45:51;99449.88;;;12.68;40.18
22000;BME280;11164;48.818;2.322;2023-03-26T10:02:38;99473.56;;;12.37;40.04
22000;BME280;11164;48.818;2.322;2023-03-26T10:05:24;99459.81;;;12.39;39.90
22000;BME280;11164;48.818;2.322;2023-03-26T10:24:28;99483.84;;;12.64;40.08
22000;BME280;11164;48.818;2.322;2023-03-26T10:27:28;99482.06;;;12.70;39.71
22000;BME280;11164;48.818;2.322;2023-03-26T10:36:08;99498.06;;;13.12;38.45
22000;BME280;11164;48.818;2.322;2023-03-26T10:52:30;99503.88;;;13.83;38.28
22000;BME280;11164;48.818;2.322;2023-03-26T10:55:30;99498.22;;;13.68;37.56
22000;BME280;11164;48.818;2.322;2023-03-26T10:58:12;99500.63;;;14.37;38.16
22000;BME280;11164;48.818;2.322;2023-03-26T11:01:11;99511.69;;;14.75;35.42
22000;BME280;11164;48.818;2.322;2023-03-26T11:03:54;99497.16;;;14.42;37.10
22000;BME280;11164;48.818;2.322;2023-03-26T11:06:28;99501.69;;;14.58;37.25
22000;BME280;11164;48.818;2.322;2023-03-26T11:20:04;99487.59;;;15.60;35.75
22000;BME280;11164;48.818;2.322;2023-03-26T11:30:59;99488.00;;;14.70;35.68
22000;BME280;11164;48.818;2.322;2023-03-26T11:33:33;99477.13;;;14.87;37.88
22000;BME280;11164;48.818;2.322;2023-03-26T11:36:05;99483.84;;;15.07;36.69
22000;BME280;11164;48.818;2.322;2023-03-26T11:38:41;99468.22;;;15.84;34.86
22000;BME280;11164;48.818;2.322;2023-03-26T11:41:27;99466.38;;;15.94;32.12
22000;BME280;11164;48.818;2.322;2023-03-26T11:44:41;99471.47;;;15.48;36.78
22000;BME280;11164;48.818;2.322;2023-03-26T11:46:49;99475.13;;;15.64;36.53
22000;BME280;11164;48.818;2.322;2023-03-26T11:49:17;99467.03;;;15.42;36.71
22000;BME280;11164;48.818;2.322;2023-03-26T11:51:45;99473.34;;;15.15;36.74
22000;BME280;11164;48.818;2.322;2023-03-26T11:54:12;99487.56;;;15.28;36.47
22000;BME280;11164;48.818;2.322;2023-03-26T11:56:45;99469.44;;;15.06;36.02
22000;BME280;11164;48.818;2.322;2023-03-26T11:59:15;99477.41;;;14.69;36.93
22000;BME280;11164;48.818;2.322;2023-03-26T12:01:49;99497.94;;;14.20;35.62
22000;BME280;11164;48.818;2.322;2023-03-26T12:04:19;99490.97;;;14.47;36.87
22000;BME280;11164;48.818;2.322;2023-03-26T12:06:55;99493.41;;;14.87;36.20
22000;BME280;11164;48.818;2.322;2023-03-26T12:09:22;99498.44;;;14.56;36.64
22000;BME280;11164;48.818;2.322;2023-03-26T12:11:50;99512.34;;;14.43;36.53
22000;BME280;11164;48.818;2.322;2023-03-26T12:14:20;99527.88;;;13.00;38.66
22000;BME280;11164;48.818;2.322;2023-03-26T12:17:39;99520.63;;;12.77;39.85
22000;BME280;11164;48.818;2.322;2023-03-26T12:22:57;99504.34;;;12.48;38.02
22000;BME280;11164;48.818;2.322;2023-03-26T12:28:15;99501.88;;;12.99;38.86
22000;BME280;11164;48.818;2.322;2023-03-26T12:33:27;99496.91;;;13.54;37.52
22000;BME280;11164;48.818;2.322;2023-03-26T12:35:55;99497.78;;;14.10;36.47
22000;BME280;11164;48.818;2.322;2023-03-26T12:38:23;99486.00;;;13.99;36.89
22000;BME280;11164;48.818;2.322;2023-03-26T12:41:06;99495.66;;;14.12;37.27
22000;BME280;11164;48.818;2.322;2023-03-26T12:43:43;99480.78;;;14.15;37.99
22000;BME280;11164;48.818;2.322;2023-03-26T12:46:26;99483.03;;;14.01;39.51
22000;BME280;11164;48.818;2.322;2023-03-26T12:48:53;99472.38;;;14.33;37.27
22000;BME280;11164;48.818;2.322;2023-03-26T12:56:55;99460.56;;;15.43;36.99
22000;BME280;11164;48.818;2.322;2023-03-26T13:11:18;99458.41;;;14.47;38.17
22000;BME280;11164;48.818;2.322;2023-03-26T13:28:14;99477.00;;;13.14;41.10
22000;BME280;11164;48.818;2.322;2023-03-26T13:30:51;99461.19;;;13.40;40.19
22000;BME280;11164;48.818;2.322;2023-03-26T13:36:12;99460.06;;;14.25;41.50
22000;BME280;11164;48.818;2.322;2023-03-26T13:44:40;99470.59;;;14.66;38.24
22000;BME280;11164;48.818;2.322;2023-03-26T13:47:13;99486.16;;;13.93;39.35
22000;BME280;11164;48.818;2.322;2023-03-26T13:49:53;99484.09;;;13.66;40.85
22000;BME280;11164;48.818;2.322;2023-03-26T13:52:29;99498.16;;;14.36;37.30
22000;BME280;11164;48.818;2.322;2023-03-26T13:57:42;99492.41;;;12.09;41.83
22000;BME280;11164;48.818;2.322;2023-03-26T14:00:18;99453.56;;;12.50;42.25
22000;BME280;11164;48.818;2.322;2023-03-26T14:02:52;99439.59;;;13.28;39.71
22000;BME280;11164;48.818;2.322;2023-03-26T14:05:21;99456.59;;;13.91;38.10
22000;BME280;11164;48.818;2.322;2023-03-26T14:08:05;99466.88;;;14.50;37.80
22000;BME280;11164;48.818;2.322;2023-03-26T14:10:39;99450.41;;;14.79;38.24
22000;BME280;11164;48.818;2.322;2023-03-26T14:13:06;99453.13;;;15.33;37.89
22000;BME280;11164;48.818;2.322;2023-03-26T14:29:09;99447.66;;;16.51;36.87
22000;BME280;11164;48.818;2.322;2023-03-26T14:32:06;99449.19;;;17.05;35.60
22000;BME280;11164;48.818;2.322;2023-03-26T14:45:54;99443.69;;;18.88;31.08
22000;BME280;11164;48.818;2.322;2023-03-26T14:48:35;99453.16;;;18.46;35.82
22000;BME280;11164;48.818;2.322;2023-03-26T14:54:32;99441.41;;;19.45;34.41
22000;BME280;11164;48.818;2.322;2023-03-26T14:59:43;99459.50;;;18.31;32.02
22000;BME280;11164;48.818;2.322;2023-03-26T15:03:04;99450.31;;;17.45;33.50
22000;BME280;11164;48.818;2.322;2023-03-26T15:09:12;99455.25;;;17.69;32.89
22000;BME280;11164;48.818;2.322;2023-03-26T15:12:26;99458.19;;;17.21;33.47
22000;BME280;11164;48.818;2.322;2023-03-26T15:23:48;99507.84;;;14.93;37.15
22000;BME280;11164;48.818;2.322;2023-03-26T15:29:38;99541.09;;;13.88;39.50
22000;BME280;11164;48.818;2.322;2023-03-26T15:40:28;99529.75;;;14.86;36.35
22000;BME280;11164;48.818;2.322;2023-03-26T15:43:10;99524.13;;;16.07;37.77
22000;BME280;11164;48.818;2.322;2023-03-26T15:45:39;99525.03;;;16.71;33.98
22000;BME280;11164;48.818;2.322;2023-03-26T15:59:20;99521.13;;;17.24;33.95
22000;BME280;11164;48.818;2.322;2023-03-26T16:02:12;99536.38;;;16.52;35.77
22000;BME280;11164;48.818;2.322;2023-03-26T16:04:54;99536.44;;;15.55;37.17
22000;BME280;11164;48.818;2.322;2023-03-26T16:10:01;99546.38;;;14.73;38.26
22000;BME280;11164;48.818;2.322;2023-03-26T16:15:41;99569.88;;;14.45;38.06
22000;BME280;11164;48.818;2.322;2023-03-26T16:20:49;99586.66;;;14.08;38.65
22000;BME280;11164;48.818;2.322;2023-03-26T16:23:28;99579.66;;;13.78;38.48
22000;BME280;11164;48.818;2.322;2023-03-26T16:25:58;99599.63;;;13.89;38.22
22000;BME280;11164;48.818;2.322;2023-03-26T16:31:30;99613.03;;;13.96;38.70
22000;BME280;11164;48.818;2.322;2023-03-26T16:36:36;99630.78;;;13.75;38.31
22000;BME280;11164;48.818;2.322;2023-03-26T16:41:30;99612.78;;;13.68;38.61
22000;BME280;11164;48.818;2.322;2023-03-26T16:44:17;99634.53;;;14.53;37.15
22000;BME280;11164;48.818;2.322;2023-03-26T16:55:06;99651.94;;;13.61;38.86
22000;BME280;11164;48.818;2.322;2023-03-26T17:07:54;99677.47;;;13.24;38.96
22000;BME280;11164;48.818;2.322;2023-03-26T17:11:36;99688.00;;;13.49;39.58
22000;BME280;11164;48.818;2.322;2023-03-26T17:16:33;99692.19;;;13.17;39.52
22000;BME280;11164;48.818;2.322;2023-03-26T17:19:05;99714.13;;;13.03;39.00
22000;BME280;11164;48.818;2.322;2023-03-26T17:24:34;99721.09;;;13.52;38.75
22000;BME280;11164;48.818;2.322;2023-03-26T17:27:06;99730.41;;;13.44;38.20
22000;BME280;11164;48.818;2.322;2023-03-26T17:32:22;99737.28;;;13.23;38.64
22000;BME280;11164;48.818;2.322;2023-03-26T17:34:54;99733.19;;;13.08;38.96
22000;BME280;11164;48.818;2.322;2023-03-26T17:42:32;99754.94;;;13.02;39.16
22000;BME280;11164;48.818;2.322;2023-03-26T17:47:45;99768.25;;;13.03;39.42
22000;BME280;11164;48.818;2.322;2023-03-26T17:50:18;99777.16;;;12.92;38.94
22000;BME280;11164;48.818;2.322;2023-03-26T17:53:02;99787.81;;;12.75;39.93
22000;BME280;11164;48.818;2.322;2023-03-26T17:55:31;99797.63;;;13.11;38.93
22000;BME280;11164;48.818;2.322;2023-03-26T17:58:03;99796.25;;;13.21;38.44
22000;BME280;11164;48.818;2.322;2023-03-26T18:00:40;99801.31;;;13.17;38.77
22000;BME280;11164;48.818;2.322;2023-03-26T18:03:15;99807.97;;;13.03;38.51
22000;BME280;11164;48.818;2.322;2023-03-26T18:05:42;99811.66;;;13.08;38.48
22000;BME280;11164;48.818;2.322;2023-03-26T18:16:50;99853.16;;;12.90;38.31
22000;BME280;11164;48.818;2.322;2023-03-26T18:19:19;99847.91;;;12.65;39.09
22000;BME280;11164;48.818;2.322;2023-03-26T18:21:51;99860.69;;;12.58;39.04
22000;BME280;11164;48.818;2.322;2023-03-26T18:24:40;99862.47;;;12.94;38.58
22000;BME280;11164;48.818;2.322;2023-03-26T18:27:14;99870.84;;;12.74;38.72
22000;BME280;11164;48.818;2.322;2023-03-26T18:30:29;99884.03;;;13.01;38.31
22000;BME280;11164;48.818;2.322;2023-03-26T18:32:30;99881.88;;;12.91;38.23
22000;BME280;11164;48.818;2.322;2023-03-26T18:35:18;99874.28;;;12.82;37.78
22000;BME280;11164;48.818;2.322;2023-03-26T18:37:45;99896.84;;;12.75;38.62
22000;BME280;11164;48.818;2.322;2023-03-26T18:40:17;99903.44;;;12.80;37.91
22000;BME280;11164;48.818;2.322;2023-03-26T18:42:46;99918.84;;;12.49;38.76
22000;BME280;11164;48.818;2.322;2023-03-26T18:47:47;99934.44;;;12.65;38.77
22000;BME280;11164;48.818;2.322;2023-03-26T18:50:17;99944.84;;;12.50;38.61
22000;BME280;11164;48.818;2.322;2023-03-26T18:52:46;99940.50;;;12.30;38.98
22000;BME280;11164;48.818;2.322;2023-03-26T18:55:12;99955.34;;;12.21;39.28
22000;BME280;11164;48.818;2.322;2023-03-26T18:57:40;99963.38;;;12.46;39.01
22000;BME280;11164;48.818;2.322;2023-03-26T19:00:26;99972.69;;;12.13;39.72
22000;BME280;11164;48.818;2.322;2023-03-26T19:03:03;99994.38;;;12.44;39.13
22000;BME280;11164;48.818;2.322;2023-03-26T19:05:31;99992.47;;;12.51;38.99